createdAt,value
2019-03-13T00:00:23.833Z,6.10
2019-03-13T00:05:16.775Z,6.00
2019-03-13T00:10:11.221Z,6.00
2019-03-13T00:15:05.821Z,6.00
2019-03-13T00:19:58.201Z,6.00
2019-03-13T00:24:50.929Z,5.90
2019-03-13T00:29:43.244Z,5.90
2019-03-13T00:34:35.937Z,5.90
2019-03-13T00:39:28.293Z,5.90
2019-03-13T00:44:20.941Z,5.90
2019-03-13T00:49:13.537Z,5.90
2019-03-13T00:54:05.896Z,5.90
2019-03-13T00:58:57.941Z,5.90
2019-03-13T01:03:54.925Z,5.80
2019-03-13T01:08:47.189Z,5.90
2019-03-13T01:13:39.696Z,5.90
2019-03-13T01:18:32.298Z,5.90
2019-03-13T01:23:25.018Z,5.80
2019-03-13T01:28:17.610Z,5.60
2019-03-13T01:33:15.040Z,5.50
2019-03-13T01:38:07.805Z,5.50
2019-03-13T01:43:00.549Z,5.60
2019-03-13T01:47:53.389Z,5.70
2019-03-13T01:52:46.007Z,5.70
2019-03-13T01:57:38.610Z,5.80
2019-03-13T02:02:31.025Z,5.80
2019-03-13T02:07:23.484Z,5.80
2019-03-13T02:12:15.912Z,5.90
2019-03-13T02:17:08.397Z,5.90
2019-03-13T02:22:01.244Z,5.90
2019-03-13T02:26:53.942Z,5.90
2019-03-13T02:31:46.383Z,5.90
2019-03-13T02:36:38.929Z,5.90
2019-03-13T02:41:31.502Z,5.90
2019-03-13T02:46:24.473Z,5.90
2019-03-13T02:51:16.885Z,5.90
2019-03-13T02:56:09.678Z,5.90
2019-03-13T03:01:06.361Z,5.90
2019-03-13T03:06:00.477Z,5.90
2019-03-13T03:10:53.079Z,5.90
2019-03-13T03:15:45.342Z,5.90
2019-03-13T03:20:37.927Z,5.90
2019-03-13T03:25:30.514Z,5.90
2019-03-13T03:30:24.113Z,5.90
2019-03-13T03:35:16.724Z,5.80
2019-03-13T03:40:21.929Z,5.90
2019-03-13T03:45:11.684Z,5.90
2019-03-13T03:50:07.074Z,5.90
2019-03-13T03:54:59.277Z,5.90
2019-03-13T03:59:51.664Z,5.90
2019-03-13T04:04:44.114Z,5.80
2019-03-13T04:09:36.524Z,5.80
2019-03-13T04:14:29.361Z,5.80
2019-03-13T04:19:21.680Z,5.70
2019-03-13T04:24:13.962Z,5.70
2019-03-13T04:29:06.434Z,5.70
2019-03-13T04:33:59.242Z,5.70
2019-03-13T04:38:51.599Z,5.70
2019-03-13T04:43:44.287Z,5.70
2019-03-13T04:48:37.151Z,5.60
2019-03-13T04:53:29.449Z,5.60
2019-03-13T04:58:23.140Z,5.50
2019-03-13T05:03:15.612Z,5.50
2019-03-13T05:08:08.371Z,5.40
2019-03-13T05:13:00.856Z,5.40
2019-03-13T05:17:53.185Z,5.40
2019-03-13T05:22:45.708Z,5.40
2019-03-13T05:27:38.433Z,5.40
2019-03-13T05:32:30.775Z,5.30
2019-03-13T05:37:23.486Z,5.30
2019-03-13T05:42:16.176Z,5.30
2019-03-13T05:47:09.776Z,5.20
2019-03-13T05:52:02.034Z,5.20
2019-03-13T05:56:54.346Z,5.20
2019-03-13T06:01:46.873Z,5.30
2019-03-13T06:06:39.192Z,5.30
2019-03-13T06:11:31.594Z,5.40
2019-03-13T06:16:24.037Z,5.40
2019-03-13T06:21:16.019Z,5.40
2019-03-13T06:26:08.642Z,5.50
2019-03-13T06:31:01.297Z,5.60
2019-03-13T06:35:53.978Z,5.60
2019-03-13T06:40:46.786Z,5.70
2019-03-13T06:45:39.208Z,5.70
2019-03-13T06:50:31.887Z,5.80
2019-03-13T06:55:24.441Z,5.80
2019-03-13T07:00:38.556Z,5.80
2019-03-13T07:05:32.933Z,5.80
2019-03-13T07:10:29.678Z,5.80
2019-03-13T07:15:35.692Z,5.90
2019-03-13T07:20:28.201Z,6.00
2019-03-13T07:25:22.205Z,5.90
2019-03-13T07:30:32.510Z,5.90
2019-03-13T07:35:43.169Z,5.90
2019-03-13T07:40:37.357Z,5.90
2019-03-13T07:45:40.501Z,5.90
2019-03-13T07:50:34.444Z,5.90
2019-03-13T07:55:34.670Z,5.80
2019-03-13T08:00:28.550Z,5.80
2019-03-13T08:05:22.265Z,6.00
2019-03-13T08:10:32.779Z,6.10
2019-03-13T08:15:27.073Z,6.10
2019-03-13T08:20:37.938Z,6.40
2019-03-13T08:25:48.212Z,6.50
2019-03-13T08:30:45.241Z,6.50
2019-03-13T08:35:55.786Z,6.80
2019-03-13T08:40:52.365Z,7.30
2019-03-13T08:45:55.257Z,7.30
2019-03-13T08:50:49.569Z,7.10
2019-03-13T08:55:46.551Z,6.90
2019-03-13T09:00:43.509Z,6.80
2019-03-13T09:05:37.644Z,6.60
2019-03-13T09:10:37.350Z,6.70
2019-03-13T09:15:34.505Z,6.90
2019-03-13T09:20:28.666Z,6.80
2019-03-13T09:25:38.880Z,6.80
2019-03-13T09:30:49.370Z,6.90
2019-03-13T09:35:46.578Z,6.90
2019-03-13T09:40:46.600Z,6.90
2019-03-13T09:45:56.672Z,6.90
2019-03-13T09:50:50.949Z,7.00
2019-03-13T09:56:01.775Z,7.20
2019-03-13T10:01:12.496Z,7.60
2019-03-13T10:06:13.101Z,9.10
2019-03-13T10:11:19.497Z,11.70
2019-03-13T10:16:13.965Z,12.10
2019-03-13T10:21:07.986Z,11.10
2019-03-13T10:26:11.357Z,10.20
2019-03-13T10:31:05.533Z,9.90
2019-03-13T10:36:02.357Z,10.20
2019-03-13T10:41:02.280Z,10.60
2019-03-13T10:45:56.281Z,10.30
2019-03-13T10:50:53.377Z,10.10
2019-03-13T10:55:50.173Z,9.90
2019-03-13T11:00:53.789Z,9.90
2019-03-13T11:06:04.258Z,10.20
2019-03-13T11:10:58.504Z,10.00
2019-03-13T11:16:07.489Z,11.00
2019-03-13T11:21:07.252Z,11.90
2019-03-13T11:26:07.154Z,11.00
2019-03-13T11:31:01.432Z,9.90
2019-03-13T11:35:55.558Z,9.00
2019-03-13T11:40:58.829Z,8.70
2019-03-13T11:46:08.381Z,8.60
2019-03-13T11:51:19.246Z,8.70
2019-03-13T11:56:22.874Z,8.40
2019-03-13T12:01:19.933Z,8.30
2019-03-13T12:06:31.837Z,8.40
2019-03-13T12:11:26.201Z,8.10
2019-03-13T12:16:20.622Z,8.00
2019-03-13T12:21:14.782Z,7.80
2019-03-13T12:26:09.289Z,7.70
2019-03-13T12:31:06.273Z,7.70
2019-03-13T12:36:16.811Z,7.80
2019-03-13T12:41:16.934Z,8.00
2019-03-13T12:46:19.966Z,8.40
2019-03-13T12:51:16.767Z,8.60
2019-03-13T12:56:14.009Z,8.80
2019-03-13T13:01:08.083Z,9.10
2019-03-13T13:06:17.569Z,9.10
2019-03-13T13:11:17.719Z,8.90
2019-03-13T13:16:26.769Z,8.70
2019-03-13T13:21:19.636Z,8.80
2019-03-13T13:26:12.287Z,9.00
2019-03-13T13:31:04.692Z,9.30
2019-03-13T13:35:57.176Z,9.70
2019-03-13T13:40:49.806Z,9.90
2019-03-13T13:45:45.021Z,9.80
2019-03-13T13:50:37.634Z,9.40
2019-03-13T13:55:30.009Z,9.10
2019-03-13T14:00:22.535Z,8.90
2019-03-13T14:05:14.713Z,8.90
2019-03-13T14:10:10.494Z,8.80
2019-03-13T14:15:03.814Z,8.80
2019-03-13T14:19:56.413Z,8.80
2019-03-13T14:24:48.609Z,8.80
2019-03-13T14:29:41.088Z,9.20
2019-03-13T14:34:33.605Z,9.70
2019-03-13T14:39:26.224Z,10.20
2019-03-13T14:44:18.725Z,10.80
2019-03-13T14:49:11.144Z,10.50
2019-03-13T14:54:03.852Z,10.40
2019-03-13T14:58:56.497Z,10.30
2019-03-13T15:03:49.003Z,10.10
2019-03-13T15:08:41.492Z,10.00
2019-03-13T15:13:34.120Z,9.70
2019-03-13T15:18:26.797Z,9.50
2019-03-13T15:23:19.617Z,9.40
2019-03-13T15:28:12.070Z,9.10
2019-03-13T15:33:04.918Z,8.90
2019-03-13T15:37:57.594Z,8.60
2019-03-13T15:42:50.455Z,8.40
2019-03-13T15:47:43.248Z,8.20
2019-03-13T15:52:35.841Z,8.00
2019-03-13T15:57:28.122Z,7.70
2019-03-13T16:02:20.699Z,7.60
2019-03-13T16:07:13.449Z,7.40
2019-03-13T16:12:05.770Z,7.20
2019-03-13T16:16:58.510Z,7.10
2019-03-13T16:21:51.214Z,6.60
2019-03-13T16:26:44.036Z,6.20
2019-03-13T16:31:36.659Z,6.00
2019-03-13T16:36:29.055Z,5.90
2019-03-13T16:41:21.762Z,6.10
2019-03-13T16:46:14.437Z,6.20
2019-03-13T16:51:06.900Z,6.40
2019-03-13T16:55:59.449Z,6.60
2019-03-13T17:00:52.533Z,6.70
2019-03-13T17:05:44.997Z,6.80
2019-03-13T17:10:37.769Z,6.80
2019-03-13T17:15:30.117Z,6.70
2019-03-13T17:20:30.608Z,6.60
2019-03-13T17:25:23.126Z,6.50
2019-03-13T17:30:18.672Z,6.40
2019-03-13T17:35:10.988Z,6.40
2019-03-13T17:40:04.689Z,6.50
2019-03-13T17:44:57.450Z,6.50
2019-03-13T17:49:50.185Z,6.50
2019-03-13T17:54:42.523Z,6.50
2019-03-13T17:59:34.925Z,6.50
2019-03-13T18:04:27.443Z,6.50
2019-03-13T18:09:19.974Z,6.60
2019-03-13T18:14:12.637Z,6.60
2019-03-13T18:19:05.728Z,6.60
2019-03-13T18:23:58.398Z,6.60
2019-03-13T18:28:51.079Z,6.60
2019-03-13T18:33:43.456Z,6.70
2019-03-13T18:38:35.874Z,6.70
2019-03-13T18:43:28.557Z,6.70
2019-03-13T18:48:20.898Z,6.70
2019-03-13T18:53:13.317Z,6.70
2019-03-13T18:58:06.048Z,6.70
2019-03-13T19:02:59.081Z,6.80
2019-03-13T19:07:51.536Z,6.80
2019-03-13T19:12:44.341Z,6.80
2019-03-13T19:17:37.028Z,6.90
2019-03-13T19:22:29.613Z,6.90
2019-03-13T19:27:22.325Z,6.90
2019-03-13T19:32:14.993Z,7.00
2019-03-13T19:37:09.319Z,7.00
2019-03-13T19:42:01.689Z,7.00
2019-03-13T19:46:54.258Z,6.70
2019-03-13T19:51:46.813Z,5.90
2019-03-13T19:56:39.153Z,5.10
2019-03-13T20:01:31.148Z,4.90
2019-03-13T20:06:23.601Z,4.80
2019-03-13T20:11:16.430Z,4.90
2019-03-13T20:16:09.437Z,5.00
2019-03-13T20:21:01.818Z,5.10
2019-03-13T20:25:54.373Z,5.20
2019-03-13T20:30:47.069Z,5.20
2019-03-13T20:35:39.849Z,5.20
2019-03-13T20:40:32.125Z,5.20
2019-03-13T20:45:26.104Z,5.30
2019-03-13T20:50:19.065Z,5.30
2019-03-13T20:55:14.600Z,5.30
2019-03-13T21:00:09.873Z,5.30
2019-03-13T21:05:02.862Z,5.30
2019-03-13T21:09:55.614Z,5.20
2019-03-13T21:14:48.339Z,5.00
2019-03-13T21:19:41.227Z,5.00
2019-03-13T21:24:33.887Z,5.00
2019-03-13T21:29:26.361Z,5.00
2019-03-13T21:34:19.071Z,5.00
2019-03-13T21:39:12.614Z,5.10
2019-03-13T21:44:05.105Z,5.10
2019-03-13T21:48:57.958Z,5.10
2019-03-13T21:53:50.810Z,5.10
2019-03-13T21:58:43.933Z,5.20
2019-03-13T22:03:36.149Z,5.20
2019-03-13T22:08:28.381Z,5.20
2019-03-13T22:13:21.477Z,5.20
2019-03-13T22:18:13.765Z,5.10
2019-03-13T22:23:06.473Z,5.10
2019-03-13T22:27:59.199Z,5.10
2019-03-13T22:32:52.457Z,5.00
2019-03-13T22:37:44.962Z,4.90
2019-03-13T22:42:37.742Z,4.90
2019-03-13T22:47:42.113Z,4.80
2019-03-13T22:52:24.456Z,4.70
2019-03-13T22:57:16.915Z,4.60
2019-03-13T23:02:09.972Z,4.70
2019-03-13T23:07:02.341Z,4.80
2019-03-13T23:11:55.292Z,4.90
2019-03-13T23:16:48.049Z,4.90
2019-03-13T23:21:40.444Z,5.10
2019-03-13T23:26:33.349Z,5.10
2019-03-13T23:31:25.897Z,5.10
2019-03-13T23:36:18.161Z,5.10
2019-03-13T23:41:10.524Z,5.20
2019-03-13T23:46:03.478Z,5.20
2019-03-13T23:50:56.133Z,5.20
2019-03-13T23:55:48.709Z,5.30
